Аэропорт: Внуково. Москва

ICAO: UUWW

METAR:
2019/05/26 14:00
UUWW 261400Z 29005MPS 250V320 9999 SCT050TCU 22/09 Q1004 R24/000070 NOSIG
METAR:
2019/05/26 12:21
TAF UUWW 261056Z 2612/2712 26003MPS 9999 SCT020 TX22/2612Z TN11/2702Z 
      TEMPO 2612/2618 -SHRA BKN015CB PROB40 
      TEMPO 2612/2618 -TSRA BKN015CB 
      BECMG 2706/2708 26008MPS